Time;durP1;ratioP1;P1;durP2;ratioP2;P2;SDS_P1;SDS_P2;PMS_P1;PMS_P2;Temp;Humidity;BMP_temperature;BMP_pressure;BME280_temperature;BME280_humidity;BME280_pressure;Samples;Min_cycle;Max_cycle;Signal;HPM_P1;HPM_P2
2023/05/19 00:01:30;;;;;;;3.58;1.48;;;;;;;;;;4997506;28;20049;-86
2023/05/19 00:04:01;;;;;;;6.55;2.20;;;;;;;;;;4997811;28;20054;-87
2023/05/19 00:06:30;;;;;;;4.38;2.08;;;;;;;;;;4997365;28;20042;-86
2023/05/19 00:08:59;;;;;;;3.67;1.65;;;;;;;;;;4997552;28;20046;-86
2023/05/19 00:11:27;;;;;;;5.43;2.20;;;;;;;;;;5014447;28;20482;-86
2023/05/19 00:13:55;;;;;;;6.10;2.47;;;;;;;;;;4997115;28;20129;-86
2023/05/19 00:16:24;;;;;;;6.03;2.15;;;;;;;;;;5014081;28;20437;-86
2023/05/19 00:18:52;;;;;;;7.72;2.70;;;;;;;;;;4997143;28;20064;-86
2023/05/19 00:21:19;;;;;;;8.05;2.33;;;;;;;;;;4997084;28;20054;-86
2023/05/19 00:23:47;;;;;;;6.55;2.40;;;;;;;;;;4996928;28;20211;-87
2023/05/19 00:26:14;;;;;;;4.97;2.20;;;;;;;;;;4998126;28;20553;-87
2023/05/19 00:28:41;;;;;;;6.82;2.22;;;;;;;;;;5014545;28;20057;-87
2023/05/19 00:31:09;;;;;;;5.93;2.53;;;;;;;;;;4997584;28;20046;-86
2023/05/19 00:33:36;;;;;;;6.57;2.60;;;;;;;;;;4996743;28;20502;-86
2023/05/19 00:36:04;;;;;;;4.13;2.67;;;;;;;;;;5014122;28;20046;-86
2023/05/19 00:38:32;;;;;;;9.57;2.55;;;;;;;;;;4996556;28;20054;-86
2023/05/19 00:41:00;;;;;;;6.10;2.70;;;;;;;;;;5014101;28;20111;-86
2023/05/19 00:43:29;;;;;;;5.18;2.72;;;;;;;;;;4996571;28;20049;-86
2023/05/19 00:45:56;;;;;;;8.07;2.60;;;;;;;;;;5014040;28;20116;-86
2023/05/19 00:48:24;;;;;;;5.10;2.70;;;;;;;;;;4996418;28;20078;-86
2023/05/19 00:51:00;;;;;;;4.25;2.67;;;;;;;;;;4996401;28;20045;-86
2023/05/19 00:53:28;;;;;;;8.57;2.63;;;;;;;;;;4996458;28;20058;-86
2023/05/19 00:55:56;;;;;;;5.50;2.92;;;;;;;;;;4996238;28;20085;-86
2023/05/19 00:58:28;;;;;;;5.43;2.63;;;;;;;;;;5013472;28;20042;-85
2023/05/19 01:01:06;;;;;;;5.88;3.08;;;;;;;;;;5013748;28;20053;-86
2023/05/19 01:03:35;;;;;;;8.95;2.67;;;;;;;;;;4996165;28;20667;-86
2023/05/19 01:06:03;;;;;;;5.80;2.58;;;;;;;;;;4996030;28;20137;-86
2023/05/19 01:08:32;;;;;;;5.68;2.55;;;;;;;;;;4996131;28;20064;-86
2023/05/19 01:10:59;;;;;;;4.10;2.45;;;;;;;;;;5013521;28;20050;-86
2023/05/19 01:13:27;;;;;;;5.35;2.67;;;;;;;;;;4995695;28;20157;-86
2023/05/19 01:15:58;;;;;;;4.32;2.72;;;;;;;;;;4995942;28;20100;-86
2023/05/19 01:18:31;;;;;;;6.55;2.50;;;;;;;;;;4996062;28;20050;-86
2023/05/19 01:21:12;;;;;;;5.68;2.15;;;;;;;;;;4995946;28;20399;-86
2023/05/19 01:23:46;;;;;;;6.60;2.78;;;;;;;;;;4995804;28;20486;-86
2023/05/19 01:26:29;;;;;;;5.45;2.60;;;;;;;;;;4995925;28;20080;-86
2023/05/19 01:29:08;;;;;;;2.67;2.08;;;;;;;;;;4995918;28;20096;-86
2023/05/19 01:31:37;;;;;;;5.53;2.53;;;;;;;;;;4996324;28;20053;-86
2023/05/19 01:34:05;;;;;;;8.68;2.30;;;;;;;;;;5013387;28;20061;-86
2023/05/19 01:36:32;;;;;;;5.88;2.40;;;;;;;;;;4995937;28;20053;-86
2023/05/19 01:39:01;;;;;;;5.93;2.42;;;;;;;;;;5013461;28;20054;-86
2023/05/19 01:41:29;;;;;;;4.43;2.30;;;;;;;;;;5002826;28;20062;-87
2023/05/19 01:43:57;;;;;;;5.57;2.30;;;;;;;;;;5007990;28;20395;-87
2023/05/19 01:46:24;;;;;;;3.83;2.38;;;;;;;;;;4996097;28;20046;-86
2023/05/19 01:48:52;;;;;;;5.13;2.03;;;;;;;;;;4996088;28;20046;-86
2023/05/19 01:51:20;;;;;;;4.50;2.05;;;;;;;;;;5013228;28;20042;-86
2023/05/19 01:53:47;;;;;;;13.73;2.35;;;;;;;;;;5013204;28;20057;-86
2023/05/19 01:56:16;;;;;;;5.25;2.13;;;;;;;;;;4999224;28;20502;-86
2023/05/19 01:58:45;;;;;;;7.05;2.30;;;;;;;;;;4999835;28;20085;-86
2023/05/19 02:01:19;;;;;;;7.93;2.40;;;;;;;;;;5017178;28;20049;-85
2023/05/19 02:03:50;;;;;;;4.38;1.88;;;;;;;;;;5016861;28;20046;-85
2023/05/19 02:06:32;;;;;;;6.15;2.97;;;;;;;;;;5016895;28;20049;-86
2023/05/19 02:09:15;;;;;;;6.60;2.63;;;;;;;;;;5016737;28;20484;-85
2023/05/19 02:11:57;;;;;;;11.48;2.92;;;;;;;;;;4999272;28;20100;-86
2023/05/19 02:14:30;;;;;;;5.63;2.47;;;;;;;;;;5016660;28;20088;-86
2023/05/19 02:16:58;;;;;;;2.97;2.10;;;;;;;;;;5016726;28;20553;-86
2023/05/19 02:19:27;;;;;;;6.22;2.42;;;;;;;;;;4999143;28;20046;-86
2023/05/19 02:21:55;;;;;;;4.95;2.20;;;;;;;;;;4999223;28;20042;-85
2023/05/19 02:24:22;;;;;;;3.92;2.15;;;;;;;;;;5016533;28;20057;-86
2023/05/19 02:26:50;;;;;;;7.70;2.35;;;;;;;;;;5016544;28;20453;-86
2023/05/19 02:29:18;;;;;;;4.55;2.33;;;;;;;;;;4999244;28;20065;-86
2023/05/19 02:31:46;;;;;;;6.43;2.75;;;;;;;;;;5016461;28;20458;-86
2023/05/19 02:34:13;;;;;;;3.67;2.85;;;;;;;;;;4998770;28;20084;-86
2023/05/19 02:36:42;;;;;;;4.13;2.40;;;;;;;;;;4999271;28;20081;-86
2023/05/19 02:39:09;;;;;;;8.50;2.65;;;;;;;;;;4998999;28;20115;-86
2023/05/19 02:41:40;;;;;;;12.00;2.88;;;;;;;;;;4998796;28;20502;-86
2023/05/19 02:44:07;;;;;;;5.30;2.58;;;;;;;;;;4999035;28;20074;-86
2023/05/19 02:46:35;;;;;;;7.22;2.55;;;;;;;;;;4998763;28;20050;-86
2023/05/19 02:49:02;;;;;;;5.97;2.65;;;;;;;;;;4998900;28;20136;-86
2023/05/19 02:51:29;;;;;;;5.57;2.20;;;;;;;;;;4998684;28;20418;-86
2023/05/19 02:53:57;;;;;;;3.25;2.50;;;;;;;;;;4999051;28;20124;-86
2023/05/19 02:56:25;;;;;;;3.55;2.40;;;;;;;;;;5009063;28;20076;-85
2023/05/19 02:58:52;;;;;;;3.28;2.47;;;;;;;;;;5004433;28;20058;-86
2023/05/19 03:01:20;;;;;;;4.03;2.30;;;;;;;;;;4998994;28;20049;-86
2023/05/19 03:03:48;;;;;;;3.72;2.72;;;;;;;;;;4998032;28;20082;-86
2023/05/19 03:06:16;;;;;;;4.47;2.45;;;;;;;;;;4997049;28;20046;-86
2023/05/19 03:08:44;;;;;;;8.60;2.80;;;;;;;;;;5015506;28;20050;-86
2023/05/19 03:11:11;;;;;;;8.48;3.20;;;;;;;;;;5015958;28;20046;-86
2023/05/19 03:13:38;;;;;;;2.38;2.28;;;;;;;;;;5015265;28;20049;-86
2023/05/19 03:16:06;;;;;;;3.75;2.50;;;;;;;;;;5015498;28;20081;-86
2023/05/19 03:18:34;;;;;;;8.85;2.80;;;;;;;;;;4998024;28;20052;-86
2023/05/19 03:21:02;;;;;;;5.88;2.90;;;;;;;;;;4998075;28;20684;-86
2023/05/19 03:23:29;;;;;;;7.32;2.75;;;;;;;;;;4997972;28;20054;-86
2023/05/19 03:25:57;;;;;;;8.27;3.10;;;;;;;;;;5015298;28;20045;-86
2023/05/19 03:28:26;;;;;;;7.97;3.17;;;;;;;;;;4997987;28;20077;-87
2023/05/19 03:30:53;;;;;;;5.15;2.70;;;;;;;;;;4997964;28;20061;-85
2023/05/19 03:33:20;;;;;;;4.03;2.95;;;;;;;;;;5014968;28;20050;-86
2023/05/19 03:35:48;;;;;;;4.30;3.08;;;;;;;;;;5015520;28;20062;-86
2023/05/19 03:38:15;;;;;;;3.78;2.80;;;;;;;;;;4997649;28;20137;-86
2023/05/19 03:40:43;;;;;;;8.07;3.10;;;;;;;;;;5014834;28;20388;-86
2023/05/19 03:43:11;;;;;;;7.60;4.00;;;;;;;;;;5014960;28;20049;-86
2023/05/19 03:45:38;;;;;;;12.38;4.57;;;;;;;;;;5014909;28;20418;-86
2023/05/19 03:48:05;;;;;;;6.63;4.18;;;;;;;;;;4997539;28;20050;-86
2023/05/19 03:50:33;;;;;;;7.38;3.90;;;;;;;;;;4997397;28;20141;-86
2023/05/19 03:53:00;;;;;;;10.55;4.80;;;;;;;;;;4997685;28;20061;-86
2023/05/19 03:55:28;;;;;;;11.55;5.68;;;;;;;;;;4997491;28;20089;-86
2023/05/19 03:57:56;;;;;;;8.43;4.60;;;;;;;;;;4997515;28;20053;-86
2023/05/19 04:00:23;;;;;;;12.55;5.20;;;;;;;;;;5014523;28;20064;-86
2023/05/19 04:02:50;;;;;;;8.60;6.35;;;;;;;;;;4997262;28;20042;-86
2023/05/19 04:05:18;;;;;;;11.07;5.15;;;;;;;;;;4997484;28;20058;-86
2023/05/19 04:07:45;;;;;;;9.20;3.70;;;;;;;;;;4997335;28;20050;-86
2023/05/19 04:10:13;;;;;;;6.97;4.45;;;;;;;;;;5002416;28;20081;-86
2023/05/19 04:12:40;;;;;;;6.57;4.15;;;;;;;;;;5027226;28;20085;-86
2023/05/19 04:15:10;;;;;;;8.40;5.35;;;;;;;;;;5014796;28;20046;-87
2023/05/19 04:17:37;;;;;;;8.40;5.10;;;;;;;;;;4996668;28;20052;-86
2023/05/19 04:20:05;;;;;;;8.57;4.68;;;;;;;;;;5014238;28;20052;-86
2023/05/19 04:22:32;;;;;;;4.60;4.07;;;;;;;;;;5014442;28;20046;-86
2023/05/19 04:25:00;;;;;;;4.45;3.42;;;;;;;;;;5014189;28;20569;-85
2023/05/19 04:27:28;;;;;;;10.35;3.20;;;;;;;;;;4996845;28;20092;-86
2023/05/19 04:29:56;;;;;;;6.35;2.92;;;;;;;;;;4996754;28;20081;-86
2023/05/19 04:32:24;;;;;;;15.73;3.53;;;;;;;;;;5013958;28;20074;-86
2023/05/19 04:34:51;;;;;;;10.40;3.22;;;;;;;;;;4996519;28;20052;-86
2023/05/19 04:37:19;;;;;;;7.43;3.30;;;;;;;;;;4996558;28;20196;-86
2023/05/19 04:39:47;;;;;;;5.88;3.00;;;;;;;;;;4996643;28;20053;-86
2023/05/19 04:42:17;;;;;;;4.30;2.90;;;;;;;;;;5014026;28;20137;-86
2023/05/19 04:44:45;;;;;;;5.43;2.30;;;;;;;;;;4996546;28;20060;-86
2023/05/19 04:47:13;;;;;;;5.70;2.50;;;;;;;;;;4996522;28;20145;-86
2023/05/19 04:49:41;;;;;;;3.85;2.88;;;;;;;;;;4996411;28;20081;-85
2023/05/19 04:52:11;;;;;;;3.03;2.15;;;;;;;;;;4996678;28;20443;-86
2023/05/19 04:54:39;;;;;;;3.88;2.58;;;;;;;;;;4996143;28;20049;-86
2023/05/19 04:57:06;;;;;;;7.30;2.53;;;;;;;;;;4996198;28;20104;-87
2023/05/19 04:59:33;;;;;;;6.85;2.00;;;;;;;;;;5013567;28;20453;-86
2023/05/19 05:02:00;;;;;;;3.88;2.20;;;;;;;;;;4995822;28;20088;-86
2023/05/19 05:04:28;;;;;;;5.07;2.17;;;;;;;;;;5013594;28;20064;-86
2023/05/19 05:06:55;;;;;;;3.35;1.90;;;;;;;;;;5013704;28;20554;-87
2023/05/19 05:09:22;;;;;;;3.45;1.80;;;;;;;;;;4996044;28;20092;-86
2023/05/19 05:11:50;;;;;;;5.07;1.77;;;;;;;;;;4996032;28;20062;-87
2023/05/19 05:14:17;;;;;;;3.85;1.90;;;;;;;;;;4995889;28;20487;-86
2023/05/19 05:16:45;;;;;;;5.53;2.10;;;;;;;;;;5013552;28;20478;-87
2023/05/19 05:19:12;;;;;;;4.95;1.80;;;;;;;;;;4996224;28;20046;-86
2023/05/19 05:21:40;;;;;;;4.18;1.98;;;;;;;;;;4996074;28;20050;-86
2023/05/19 05:24:08;;;;;;;3.78;1.75;;;;;;;;;;4998394;28;20096;-85
2023/05/19 05:26:36;;;;;;;4.80;1.90;;;;;;;;;;5013778;28;20104;-86
2023/05/19 05:29:03;;;;;;;1.77;1.30;;;;;;;;;;5014429;28;20057;-86
2023/05/19 05:31:30;;;;;;;4.22;1.92;;;;;;;;;;4995748;28;20549;-86
2023/05/19 05:33:58;;;;;;;5.20;2.00;;;;;;;;;;5013162;28;20456;-86
2023/05/19 05:36:25;;;;;;;5.07;1.80;;;;;;;;;;4995864;28;20077;-86
2023/05/19 05:38:52;;;;;;;3.75;1.60;;;;;;;;;;4996199;28;20050;-87
2023/05/19 05:41:20;;;;;;;7.43;2.00;;;;;;;;;;5013168;28;20054;-87
2023/05/19 05:43:48;;;;;;;7.13;2.10;;;;;;;;;;4996200;28;20050;-86
2023/05/19 05:46:16;;;;;;;3.22;1.75;;;;;;;;;;4995978;28;20088;-86
2023/05/19 05:48:43;;;;;;;2.85;1.60;;;;;;;;;;4995923;28;20042;-86
2023/05/19 05:51:10;;;;;;;2.97;1.67;;;;;;;;;;5013012;28;20046;-87
2023/05/19 05:53:42;;;;;;;6.70;1.90;;;;;;;;;;4995921;28;20084;-86
2023/05/19 05:56:10;;;;;;;4.47;1.75;;;;;;;;;;4995846;28;20073;-87
2023/05/19 05:58:39;;;;;;;4.32;1.48;;;;;;;;;;5012996;28;20049;-87
2023/05/19 06:01:10;;;;;;;5.53;2.00;;;;;;;;;;5013161;28;20054;-86
2023/05/19 06:03:41;;;;;;;3.47;1.55;;;;;;;;;;4995552;28;20049;-86
2023/05/19 06:06:08;;;;;;;6.38;2.17;;;;;;;;;;4995448;28;20053;-87
2023/05/19 06:08:35;;;;;;;7.22;2.22;;;;;;;;;;4995646;28;20059;-87
2023/05/19 06:11:07;;;;;;;7.97;2.05;;;;;;;;;;4995909;28;20081;-86
2023/05/19 06:13:35;;;;;;;8.82;2.60;;;;;;;;;;4995559;28;20065;-87
2023/05/19 06:16:03;;;;;;;13.27;2.85;;;;;;;;;;4995430;28;20046;-86
2023/05/19 06:18:30;;;;;;;12.13;3.03;;;;;;;;;;4995509;28;20081;-87
2023/05/19 06:20:57;;;;;;;12.07;3.28;;;;;;;;;;5012593;28;20553;-86
2023/05/19 06:23:27;;;;;;;10.35;3.30;;;;;;;;;;5012680;28;20096;-85
2023/05/19 06:25:55;;;;;;;19.23;6.13;;;;;;;;;;5013050;28;20050;-87
2023/05/19 06:28:22;;;;;;;10.25;3.10;;;;;;;;;;5012596;28;20108;-84
2023/05/19 06:30:49;;;;;;;15.13;2.85;;;;;;;;;;5012601;28;20561;-84
2023/05/19 06:33:17;;;;;;;7.95;2.38;;;;;;;;;;4995103;28;20074;-84
2023/05/19 06:35:44;;;;;;;6.05;2.42;;;;;;;;;;5012681;28;20042;-85
2023/05/19 06:38:11;;;;;;;4.70;2.42;;;;;;;;;;4995600;28;20459;-86
2023/05/19 06:40:38;;;;;;;7.03;2.90;;;;;;;;;;4998975;28;20058;-84
2023/05/19 06:43:06;;;;;;;8.25;2.53;;;;;;;;;;5018507;28;20466;-86
2023/05/19 06:45:33;;;;;;;5.97;2.40;;;;;;;;;;4998825;28;20092;-86
2023/05/19 06:48:00;;;;;;;8.13;2.97;;;;;;;;;;4998803;28;20049;-84
2023/05/19 06:50:27;;;;;;;6.68;2.17;;;;;;;;;;4998809;28;20144;-85
2023/05/19 06:52:56;;;;;;;9.07;2.55;;;;;;;;;;5016292;28;20473;-85
2023/05/19 06:55:23;;;;;;;7.63;2.63;;;;;;;;;;5015903;28;20085;-85
2023/05/19 06:57:50;;;;;;;8.23;2.55;;;;;;;;;;5016213;28;20442;-86
2023/05/19 07:00:18;;;;;;;9.05;2.63;;;;;;;;;;5016027;28;20145;-86
2023/05/19 07:02:49;;;;;;;5.82;2.65;;;;;;;;;;5016104;28;20053;-84
2023/05/19 07:05:17;;;;;;;5.70;2.63;;;;;;;;;;4998591;28;20056;-85
2023/05/19 07:07:47;;;;;;;8.75;2.83;;;;;;;;;;4998714;28;20045;-85
2023/05/19 07:10:14;;;;;;;7.53;2.22;;;;;;;;;;4998417;28;20104;-85
2023/05/19 07:12:42;;;;;;;6.97;2.60;;;;;;;;;;5015786;28;20058;-86
2023/05/19 07:15:16;;;;;;;13.57;2.95;;;;;;;;;;4999046;28;20062;-85
2023/05/19 07:17:43;;;;;;;7.40;2.50;;;;;;;;;;4998539;28;20059;-86
2023/05/19 07:20:11;;;;;;;6.43;2.17;;;;;;;;;;4998231;28;20060;-87
2023/05/19 07:22:38;;;;;;;10.90;2.42;;;;;;;;;;4998360;28;20407;-87
2023/05/19 07:25:06;;;;;;;6.53;2.40;;;;;;;;;;5015673;28;20050;-86
2023/05/19 07:27:34;;;;;;;7.38;2.35;;;;;;;;;;5015414;28;20072;-86
2023/05/19 07:30:02;;;;;;;6.70;3.13;;;;;;;;;;4998115;28;20101;-84
2023/05/19 07:32:30;;;;;;;7.05;2.25;;;;;;;;;;4997917;28;20049;-87
2023/05/19 07:34:57;;;;;;;6.35;2.22;;;;;;;;;;4997954;28;20457;-86
2023/05/19 07:37:25;;;;;;;6.50;2.40;;;;;;;;;;4997631;28;20081;-86
2023/05/19 07:39:52;;;;;;;6.53;2.20;;;;;;;;;;4997839;28;20081;-87
2023/05/19 07:42:19;;;;;;;7.13;2.45;;;;;;;;;;4997872;28;20556;-87
2023/05/19 07:44:47;;;;;;;3.22;2.17;;;;;;;;;;4997964;28;20173;-86
2023/05/19 07:47:14;;;;;;;6.78;2.38;;;;;;;;;;5015017;28;20085;-85
2023/05/19 07:49:41;;;;;;;7.90;2.58;;;;;;;;;;4997708;28;20058;-84
2023/05/19 07:52:09;;;;;;;7.30;2.47;;;;;;;;;;4997250;28;20482;-88
2023/05/19 07:54:36;;;;;;;4.53;2.30;;;;;;;;;;5017746;28;20046;-86
2023/05/19 07:57:03;;;;;;;16.95;3.20;;;;;;;;;;4999396;28;20078;-86
2023/05/19 07:59:31;;;;;;;8.25;2.58;;;;;;;;;;4997841;28;20050;-86
2023/05/19 08:01:58;;;;;;;8.27;2.67;;;;;;;;;;5015186;28;20078;-87
2023/05/19 08:04:26;;;;;;;5.47;2.17;;;;;;;;;;5014980;28;20486;-86
2023/05/19 08:06:54;;;;;;;5.35;2.33;;;;;;;;;;4998155;28;20596;-86
2023/05/19 08:09:21;;;;;;;11.50;2.67;;;;;;;;;;5014804;28;20569;-86
2023/05/19 08:11:48;;;;;;;5.32;2.45;;;;;;;;;;5014818;28;20057;-88
2023/05/19 08:14:16;;;;;;;8.95;2.97;;;;;;;;;;4997845;28;20053;-86
2023/05/19 08:16:44;;;;;;;4.53;1.80;;;;;;;;;;5014877;28;20042;-86
2023/05/19 08:19:12;;;;;;;9.73;2.20;;;;;;;;;;4997662;28;20050;-83
2023/05/19 08:21:41;;;;;;;4.70;2.20;;;;;;;;;;4997344;28;20077;-87
2023/05/19 08:24:08;;;;;;;7.93;2.42;;;;;;;;;;4997415;28;20116;-86
2023/05/19 08:26:35;;;;;;;2.67;1.92;;;;;;;;;;4997472;28;20498;-87
2023/05/19 08:29:04;;;;;;;5.88;2.15;;;;;;;;;;4997533;28;20060;-85
2023/05/19 08:31:32;;;;;;;7.18;2.47;;;;;;;;;;4997453;28;20050;-86
2023/05/19 08:33:59;;;;;;;5.32;2.28;;;;;;;;;;4997219;28;20064;-84
2023/05/19 08:36:26;;;;;;;5.18;2.28;;;;;;;;;;4996850;28;20056;-84
2023/05/19 08:38:53;;;;;;;4.30;2.00;;;;;;;;;;4997251;28;20298;-85
2023/05/19 08:41:22;;;;;;;4.40;1.98;;;;;;;;;;5014273;28;20112;-85
2023/05/19 08:43:49;;;;;;;5.60;2.28;;;;;;;;;;4997143;28;20041;-85
2023/05/19 08:46:17;;;;;;;7.20;2.08;;;;;;;;;;4996996;28;20446;-85
2023/05/19 08:48:46;;;;;;;5.53;2.10;;;;;;;;;;4997003;28;20054;-85
2023/05/19 08:51:20;;;;;;;4.00;2.22;;;;;;;;;;5014109;28;20054;-85
2023/05/19 08:53:51;;;;;;;4.40;1.70;;;;;;;;;;4996846;28;20092;-88
2023/05/19 08:56:23;;;;;;;7.90;2.20;;;;;;;;;;5014044;28;20049;-88
2023/05/19 08:58:51;;;;;;;5.30;2.10;;;;;;;;;;4997054;28;20046;-86
2023/05/19 09:01:19;;;;;;;3.95;1.73;;;;;;;;;;4996495;28;20465;-87
2023/05/19 09:03:48;;;;;;;5.30;2.15;;;;;;;;;;4995918;28;20442;-86
2023/05/19 09:06:16;;;;;;;4.97;1.75;;;;;;;;;;4996820;28;20054;-89
2023/05/19 09:08:43;;;;;;;4.63;2.15;;;;;;;;;;4997531;28;20100;-93
2023/05/19 09:11:11;;;;;;;3.85;1.83;;;;;;;;;;4997822;28;20057;-92
2023/05/19 09:13:38;;;;;;;2.55;1.67;;;;;;;;;;4996593;28;20050;-85
2023/05/19 09:16:06;;;;;;;4.03;1.30;;;;;;;;;;4996389;28;20193;-83
2023/05/19 09:18:37;;;;;;;3.83;1.50;;;;;;;;;;5013982;28;20050;-85
2023/05/19 09:21:06;;;;;;;3.50;1.60;;;;;;;;;;5013908;28;20046;-88
2023/05/19 09:23:33;;;;;;;2.45;1.60;;;;;;;;;;4996720;28;20136;-89
2023/05/19 09:26:06;;;;;;;1.55;1.13;;;;;;;;;;4996606;28;20092;-87
2023/05/19 09:28:35;;;;;;;3.67;1.55;;;;;;;;;;4996637;28;20482;-87
2023/05/19 09:31:07;;;;;;;5.00;1.40;;;;;;;;;;5013743;28;20060;-86
2023/05/19 09:33:35;;;;;;;1.77;1.05;;;;;;;;;;4996594;28;20057;-90
2023/05/19 09:36:07;;;;;;;2.33;1.05;;;;;;;;;;4996440;28;20057;-85
2023/05/19 09:38:35;;;;;;;1.75;1.17;;;;;;;;;;4996420;28;20060;-85
2023/05/19 09:41:03;;;;;;;2.17;1.02;;;;;;;;;;4996047;28;20084;-88
2023/05/19 09:43:32;;;;;;;1.80;1.20;;;;;;;;;;4996333;28;20449;-84
2023/05/19 09:46:06;;;;;;;2.42;1.00;;;;;;;;;;4996106;28;20058;-85
2023/05/19 09:48:35;;;;;;;2.17;0.90;;;;;;;;;;4996422;28;20108;-87
2023/05/19 09:51:04;;;;;;;3.08;1.10;;;;;;;;;;4996281;28;20051;-85
2023/05/19 09:53:31;;;;;;;3.30;1.30;;;;;;;;;;5013457;28;20046;-86
2023/05/19 09:55:58;;;;;;;1.50;1.30;;;;;;;;;;5013752;28;20046;-87
2023/05/19 09:58:26;;;;;;;2.42;1.33;;;;;;;;;;5013520;28;20564;-86
2023/05/19 10:00:55;;;;;;;2.83;1.00;;;;;;;;;;4996177;28;20066;-87
2023/05/19 10:03:22;;;;;;;7.80;1.77;;;;;;;;;;4996260;28;20073;-88
2023/05/19 10:05:50;;;;;;;1.30;1.00;;;;;;;;;;4995771;28;20050;-85
2023/05/19 10:08:17;;;;;;;4.00;1.30;;;;;;;;;;4996053;28;20112;-87
2023/05/19 10:10:46;;;;;;;1.15;0.93;;;;;;;;;;4996400;28;20046;-86
2023/05/19 10:13:13;;;;;;;1.17;1.08;;;;;;;;;;4995667;28;20082;-83
2023/05/19 10:15:44;;;;;;;8.15;1.55;;;;;;;;;;4997561;28;20053;-90
2023/05/19 10:18:25;;;;;;;2.35;0.90;;;;;;;;;;5001899;28;20054;-85
2023/05/19 10:20:53;;;;;;;2.47;1.20;;;;;;;;;;4999811;28;20046;-85
2023/05/19 10:23:21;;;;;;;2.25;1.27;;;;;;;;;;5000317;28;20081;-85
2023/05/19 10:25:50;;;;;;;1.42;0.73;;;;;;;;;;5000653;28;20092;-85
2023/05/19 10:28:19;;;;;;;1.75;1.02;;;;;;;;;;4999602;28;20556;-87
2023/05/19 10:30:49;;;;;;;1.42;0.90;;;;;;;;;;4999528;28;20090;-87
2023/05/19 10:33:18;;;;;;;1.05;0.70;;;;;;;;;;4999699;28;20081;-84
2023/05/19 10:35:45;;;;;;;4.45;0.93;;;;;;;;;;5020001;28;20057;-86
2023/05/19 10:38:24;;;;;;;3.08;0.90;;;;;;;;;;5000384;28;20141;-84
2023/05/19 10:40:51;;;;;;;0.73;0.70;;;;;;;;;;4999955;28;20053;-88
2023/05/19 10:43:29;;;;;;;1.92;0.88;;;;;;;;;;4999512;28;20056;-87
2023/05/19 10:45:58;;;;;;;2.45;1.15;;;;;;;;;;4999885;28;20050;-86
2023/05/19 10:48:25;;;;;;;3.33;1.17;;;;;;;;;;4999489;28;20046;-86
2023/05/19 10:50:53;;;;;;;5.22;0.98;;;;;;;;;;4999658;28;20085;-85
2023/05/19 10:53:21;;;;;;;5.13;0.93;;;;;;;;;;4999400;28;20085;-88
2023/05/19 10:55:52;;;;;;;1.77;0.90;;;;;;;;;;5000005;28;20049;-88
2023/05/19 10:58:36;;;;;;;2.67;0.93;;;;;;;;;;4999679;28;20050;-86
2023/05/19 11:01:11;;;;;;;1.15;1.00;;;;;;;;;;4999316;28;20050;-86
2023/05/19 11:03:48;;;;;;;3.28;0.90;;;;;;;;;;4999163;28;20046;-86
2023/05/19 11:06:19;;;;;;;1.35;1.00;;;;;;;;;;4998965;28;20053;-84
2023/05/19 11:08:47;;;;;;;1.15;1.05;;;;;;;;;;4999279;28;20100;-87
2023/05/19 11:11:15;;;;;;;2.78;1.40;;;;;;;;;;4999387;28;20064;-86
2023/05/19 11:13:47;;;;;;;2.53;1.13;;;;;;;;;;4998064;28;20066;-86
2023/05/19 11:16:20;;;;;;;2.33;1.10;;;;;;;;;;4999005;28;20061;-86
2023/05/19 11:18:53;;;;;;;2.17;0.80;;;;;;;;;;4998812;28;20057;-84
2023/05/19 11:21:21;;;;;;;3.63;1.67;;;;;;;;;;5016382;28;20045;-83
2023/05/19 11:23:50;;;;;;;1.27;0.90;;;;;;;;;;4999205;28;20137;-88
2023/05/19 11:26:37;;;;;;;2.05;1.13;;;;;;;;;;4998712;28;20050;-85
2023/05/19 11:29:07;;;;;;;2.08;1.00;;;;;;;;;;4999675;28;20053;-86
2023/05/19 11:31:35;;;;;;;3.88;1.17;;;;;;;;;;4998850;28;20056;-87
2023/05/19 11:34:05;;;;;;;4.72;1.00;;;;;;;;;;4998780;28;20050;-87
2023/05/19 11:36:33;;;;;;;4.57;1.10;;;;;;;;;;4999152;28;20108;-86
2023/05/19 11:39:02;;;;;;;6.40;1.23;;;;;;;;;;5000529;28;20046;-88
2023/05/19 11:41:30;;;;;;;4.25;1.10;;;;;;;;;;4999348;28;20112;-87
2023/05/19 11:43:57;;;;;;;3.90;1.10;;;;;;;;;;5015831;28;20093;-86
2023/05/19 11:46:24;;;;;;;2.65;0.93;;;;;;;;;;4998804;28;20054;-87
2023/05/19 11:48:53;;;;;;;3.15;0.90;;;;;;;;;;4999009;28;20050;-87
2023/05/19 11:51:21;;;;;;;2.67;1.00;;;;;;;;;;4998538;28;20049;-86
2023/05/19 11:53:49;;;;;;;2.88;0.85;;;;;;;;;;4998377;28;20073;-86
2023/05/19 11:56:16;;;;;;;2.20;1.00;;;;;;;;;;5015411;28;20046;-87
2023/05/19 11:58:44;;;;;;;5.82;1.20;;;;;;;;;;4998566;28;20060;-89
2023/05/19 12:01:12;;;;;;;4.82;1.33;;;;;;;;;;4998125;28;20049;-87
2023/05/19 12:03:39;;;;;;;2.88;1.00;;;;;;;;;;4998057;28;20050;-89
2023/05/19 12:06:07;;;;;;;4.28;1.15;;;;;;;;;;4997914;28;20045;-86
2023/05/19 12:08:35;;;;;;;1.80;1.30;;;;;;;;;;4997783;28;20049;-85
2023/05/19 12:11:02;;;;;;;2.42;1.23;;;;;;;;;;4998002;28;20046;-88
2023/05/19 12:13:30;;;;;;;1.50;1.13;;;;;;;;;;5014867;28;20061;-86
2023/05/19 12:16:00;;;;;;;1.38;1.10;;;;;;;;;;4998020;28;20083;-85
2023/05/19 12:18:30;;;;;;;1.80;1.13;;;;;;;;;;5014789;28;20049;-89
2023/05/19 12:20:57;;;;;;;4.72;1.20;;;;;;;;;;5014959;28;20096;-86
2023/05/19 12:23:29;;;;;;;6.40;1.45;;;;;;;;;;4997478;28;20829;-87
2023/05/19 12:25:59;;;;;;;1.75;1.23;;;;;;;;;;4997554;28;20482;-84
2023/05/19 12:28:30;;;;;;;2.50;1.15;;;;;;;;;;5014784;28;20070;-86
2023/05/19 12:30:57;;;;;;;2.20;1.40;;;;;;;;;;4997482;28;20052;-85
2023/05/19 12:33:25;;;;;;;1.60;1.30;;;;;;;;;;4997461;28;20515;-93
2023/05/19 12:35:54;;;;;;;7.00;1.42;;;;;;;;;;4997330;28;20466;-85
2023/05/19 12:38:21;;;;;;;2.75;1.38;;;;;;;;;;5014537;28;20077;-85
2023/05/19 12:40:49;;;;;;;4.00;1.30;;;;;;;;;;4997452;28;20087;-86
2023/05/19 12:43:20;;;;;;;1.52;1.20;;;;;;;;;;4997360;28;20077;-85
2023/05/19 12:45:48;;;;;;;4.68;1.50;;;;;;;;;;4997883;28;20077;-83
2023/05/19 12:48:15;;;;;;;3.20;1.10;;;;;;;;;;4998259;28;20061;-86
2023/05/19 12:50:44;;;;;;;2.55;1.27;;;;;;;;;;4997404;28;20161;-90
2023/05/19 12:53:12;;;;;;;3.67;1.52;;;;;;;;;;4999169;28;20561;-87
2023/05/19 12:55:40;;;;;;;1.98;1.30;;;;;;;;;;4998716;28;20054;-87
2023/05/19 12:58:08;;;;;;;2.00;1.52;;;;;;;;;;5014775;28;20085;-85
2023/05/19 13:00:39;;;;;;;1.38;1.25;;;;;;;;;;4996988;28;20402;-87
2023/05/19 13:03:08;;;;;;;6.95;1.52;;;;;;;;;;5014194;28;20124;-87
2023/05/19 13:05:44;;;;;;;2.97;1.52;;;;;;;;;;4996972;28;20054;-88
2023/05/19 13:08:13;;;;;;;1.20;1.10;;;;;;;;;;4997205;28;20450;-84
2023/05/19 13:10:41;;;;;;;4.20;1.60;;;;;;;;;;4996613;28;20053;-86
2023/05/19 13:13:08;;;;;;;2.13;1.42;;;;;;;;;;4996582;28;20045;-87
2023/05/19 13:15:43;;;;;;;2.72;1.42;;;;;;;;;;4996824;28;20058;-87
2023/05/19 13:18:11;;;;;;;4.75;1.38;;;;;;;;;;4996817;28;20054;-87
2023/05/19 13:20:39;;;;;;;11.07;4.10;;;;;;;;;;5014031;28;20056;-85
2023/05/19 13:23:07;;;;;;;5.95;2.17;;;;;;;;;;5013706;28;20061;-84
2023/05/19 13:25:34;;;;;;;7.05;1.75;;;;;;;;;;4996576;28;20161;-87
2023/05/19 13:28:04;;;;;;;5.20;1.42;;;;;;;;;;4996668;28;20057;-87
2023/05/19 13:30:32;;;;;;;4.60;1.60;;;;;;;;;;5014000;28;20494;-85
2023/05/19 13:33:00;;;;;;;1.67;1.38;;;;;;;;;;4996548;28;20052;-84
2023/05/19 13:35:27;;;;;;;1.70;1.25;;;;;;;;;;5013934;28;20422;-85
2023/05/19 13:37:55;;;;;;;6.13;1.95;;;;;;;;;;5013735;28;20506;-87
2023/05/19 13:40:22;;;;;;;3.90;1.70;;;;;;;;;;5013433;28;20096;-87
2023/05/19 13:42:50;;;;;;;2.35;1.67;;;;;;;;;;5013550;28;20057;-84
2023/05/19 13:45:17;;;;;;;4.60;1.70;;;;;;;;;;4996124;28;20077;-87
2023/05/19 13:47:44;;;;;;;3.92;1.70;;;;;;;;;;4996257;28;20108;-87
2023/05/19 13:50:12;;;;;;;2.38;1.95;;;;;;;;;;4997858;28;20072;-86
2023/05/19 13:52:39;;;;;;;4.80;1.73;;;;;;;;;;5002935;28;20057;-89
2023/05/19 13:55:07;;;;;;;4.68;1.73;;;;;;;;;;5019690;28;20463;-85
2023/05/19 13:57:34;;;;;;;6.57;1.85;;;;;;;;;;5002793;28;20057;-89
2023/05/19 14:00:03;;;;;;;3.97;1.67;;;;;;;;;;5003279;28;20054;-85
2023/05/19 14:02:31;;;;;;;1.77;1.60;;;;;;;;;;5002675;28;20529;-86
2023/05/19 14:04:58;;;;;;;5.70;1.52;;;;;;;;;;5019816;28;20132;-87
2023/05/19 14:07:27;;;;;;;3.53;1.55;;;;;;;;;;5003363;28;20473;-91
2023/05/19 14:09:54;;;;;;;3.13;1.38;;;;;;;;;;5004998;28;20119;-88
2023/05/19 14:12:21;;;;;;;2.42;1.50;;;;;;;;;;4999022;28;20054;-88
2023/05/19 14:15:00;;;;;;;2.33;1.60;;;;;;;;;;5000088;28;20554;-86
2023/05/19 14:17:28;;;;;;;2.58;2.05;;;;;;;;;;4999685;28;20137;-86
2023/05/19 14:19:57;;;;;;;5.82;1.65;;;;;;;;;;5000476;28;20051;-87
2023/05/19 14:22:24;;;;;;;3.38;1.83;;;;;;;;;;4998843;28;20090;-86
2023/05/19 14:24:51;;;;;;;2.50;1.42;;;;;;;;;;4999077;28;20050;-87
2023/05/19 14:27:19;;;;;;;4.20;1.50;;;;;;;;;;5000362;28;20061;-87
2023/05/19 14:29:47;;;;;;;11.70;2.20;;;;;;;;;;4998722;28;20270;-87
2023/05/19 14:32:15;;;;;;;3.85;1.60;;;;;;;;;;4999015;28;20052;-88
2023/05/19 14:34:42;;;;;;;2.65;1.58;;;;;;;;;;4998620;28;20058;-88
2023/05/19 14:37:10;;;;;;;3.35;1.48;;;;;;;;;;5000339;28;20050;-84
2023/05/19 14:39:37;;;;;;;3.85;1.90;;;;;;;;;;4999124;28;20112;-87
2023/05/19 14:42:04;;;;;;;6.07;2.13;;;;;;;;;;4999690;28;20049;-84
2023/05/19 14:44:32;;;;;;;5.85;1.73;;;;;;;;;;4998580;28;20046;-88
2023/05/19 14:47:00;;;;;;;4.32;1.70;;;;;;;;;;5000287;28;20046;-86
2023/05/19 14:49:27;;;;;;;4.00;1.63;;;;;;;;;;4999803;28;20052;-88
2023/05/19 14:51:54;;;;;;;7.50;1.50;;;;;;;;;;4998992;28;20042;-87